Time;durP1;ratioP1;P1;durP2;ratioP2;P2;SDS_P1;SDS_P2;PMS_P1;PMS_P2;Temp;Humidity;BMP_temperature;BMP_pressure;BME280_temperature;BME280_humidity;BME280_pressure;Samples;Min_cycle;Max_cycle;Signal;HPM_P1;HPM_P2
2022/01/10 00:02:06;;;;;;;11.95;7.20;;;;;;;;;;5115611;28;20031;-77
2022/01/10 00:04:32;;;;;;;11.32;6.55;;;;;;;;;;5115305;28;20023;-77
2022/01/10 00:06:58;;;;;;;8.60;6.18;;;;;;;;;;5115401;28;20108;-76
2022/01/10 00:09:24;;;;;;;10.13;6.88;;;;;;;;;;5115234;28;20365;-77
2022/01/10 00:11:50;;;;;;;10.55;6.45;;;;;;;;;;5115230;28;20085;-76
2022/01/10 00:14:16;;;;;;;9.52;6.25;;;;;;;;;;5115599;28;20035;-76
2022/01/10 00:16:42;;;;;;;8.63;5.63;;;;;;;;;;5125455;27;20024;-76
2022/01/10 00:19:08;;;;;;;10.30;6.70;;;;;;;;;;5135707;27;20023;-76
2022/01/10 00:21:34;;;;;;;12.25;6.80;;;;;;;;;;5135614;27;20106;-77
2022/01/10 00:24:00;;;;;;;10.15;6.20;;;;;;;;;;5135694;27;20161;-77
2022/01/10 00:26:26;;;;;;;9.95;6.30;;;;;;;;;;5135459;27;20393;-77
2022/01/10 00:28:52;;;;;;;10.40;6.60;;;;;;;;;;5135658;27;20031;-76
2022/01/10 00:31:19;;;;;;;11.35;6.35;;;;;;;;;;5135384;27;20024;-77
2022/01/10 00:33:45;;;;;;;9.10;6.00;;;;;;;;;;5117345;27;20394;-77
2022/01/10 00:36:11;;;;;;;9.30;6.05;;;;;;;;;;5135390;27;20399;-79
2022/01/10 00:38:37;;;;;;;11.02;6.82;;;;;;;;;;5135177;27;20435;-78
2022/01/10 00:41:03;;;;;;;8.48;5.60;;;;;;;;;;5135337;27;20023;-78
2022/01/10 00:43:40;;;;;;;8.98;5.90;;;;;;;;;;5134844;27;20023;-78
2022/01/10 00:46:07;;;;;;;7.80;6.00;;;;;;;;;;5134042;28;20027;-78
2022/01/10 00:48:33;;;;;;;10.07;6.03;;;;;;;;;;5115455;28;20414;-78
2022/01/10 00:50:59;;;;;;;8.50;5.28;;;;;;;;;;5133916;28;20168;-79
2022/01/10 00:53:25;;;;;;;10.20;6.47;;;;;;;;;;5133682;28;20483;-76
2022/01/10 00:55:51;;;;;;;8.82;5.57;;;;;;;;;;5133917;28;20415;-76
2022/01/10 00:58:17;;;;;;;9.23;6.00;;;;;;;;;;5133737;28;20094;-77
2022/01/10 01:00:43;;;;;;;8.95;5.40;;;;;;;;;;5134031;28;20452;-77
2022/01/10 01:03:09;;;;;;;9.60;6.32;;;;;;;;;;5133409;27;20015;-77
2022/01/10 01:05:40;;;;;;;10.98;6.55;;;;;;;;;;5133631;28;20146;-77
2022/01/10 01:08:08;;;;;;;9.10;5.97;;;;;;;;;;5133628;28;20027;-77
2022/01/10 01:13:20;;;;;;;9.15;6.07;;;;;;;;;;5133792;28;20042;-77
2022/01/10 01:16:07;;;;;;;7.18;4.97;;;17.40;61.40;;;;;;5133910;28;20110;-77
2022/01/10 01:24:07;;;;;;;7.40;4.85;;;16.80;58.00;;;;;;5133613;28;20050;-77
2022/01/10 01:26:48;;;;;;;9.15;5.35;;;16.80;58.00;;;;;;5133333;28;20480;-78
2022/01/10 01:29:17;;;;;;;11.48;5.82;;;16.80;58.10;;;;;;5133733;28;20031;-78
2022/01/10 01:31:43;;;;;;;10.27;5.70;;;16.70;58.10;;;;;;5133666;28;20026;-77
2022/01/10 01:34:10;;;;;;;9.88;5.13;;;16.80;58.20;;;;;;5133320;28;20028;-77
2022/01/10 01:36:37;;;;;;;9.63;5.20;;;16.80;58.00;;;;;;5114583;28;20038;-77
2022/01/10 01:39:10;;;;;;;8.35;5.40;;;16.80;58.00;;;;;;5133234;28;20016;-77
2022/01/10 01:41:40;;;;;;;10.00;5.65;;;16.80;57.80;;;;;;5132837;28;20034;-78
2022/01/10 01:44:06;;;;;;;9.57;5.53;;;16.70;57.70;;;;;;5091638;27;1177281;-78
2022/01/10 01:46:34;;;;;;;9.38;5.85;;;16.80;57.70;;;;;;5133978;27;20051;-77
2022/01/10 01:49:00;;;;;;;8.50;5.07;;;16.80;57.70;;;;;;5134112;27;20035;-78
2022/01/10 01:51:26;;;;;;;8.93;5.43;;;16.80;57.60;;;;;;5133910;27;20025;-77
2022/01/10 01:53:52;;;;;;;7.30;5.45;;;16.80;58.20;;;;;;5133821;27;20607;-77
2022/01/10 01:56:19;;;;;;;9.23;4.97;;;16.70;57.50;;;;;;5133825;27;20022;-78
2022/01/10 01:58:45;;;;;;;11.13;5.53;;;16.70;57.40;;;;;;5134141;27;20033;-78
2022/01/10 02:01:16;;;;;;;8.20;5.00;;;16.80;57.50;;;;;;5133911;27;20019;-77
2022/01/10 02:03:42;;;;;;;10.30;5.68;;;16.70;57.40;;;;;;5134093;27;20375;-78
2022/01/10 02:06:09;;;;;;;10.05;5.95;;;;;;;;;;5133680;27;20482;-78
2022/01/10 02:08:36;;;;;;;8.32;5.30;;;;;;;;;;5133464;27;20051;-77
2022/01/10 02:11:03;;;;;;;8.20;4.90;;;;;;;;;;5133658;27;20051;-77
2022/01/10 02:13:29;;;;;;;8.63;5.55;;;;;;;;;;5133158;27;20474;-77
2022/01/10 02:16:01;;;;;;;8.00;5.20;;;;;;;;;;5133116;27;20058;-78
2022/01/10 02:18:28;;;;;;;10.35;5.50;;;;;;;;;;5133538;27;20023;-78
2022/01/10 02:20:54;;;;;;;7.82;4.80;;;;;;;;;;5133506;27;20094;-77
2022/01/10 02:23:20;;;;;;;10.98;5.45;;;;;;;;;;5133226;27;20015;-78
2022/01/10 02:25:47;;;;;;;7.10;4.93;;;;;;;;;;5115119;27;20471;-78
2022/01/10 02:28:13;;;;;;;8.30;4.60;;;;;;;;;;5133628;27;20022;-78
2022/01/10 02:30:39;;;;;;;7.40;5.00;;;;;;;;;;5133000;27;20493;-77
2022/01/10 02:33:06;;;;;;;9.45;4.90;;;;;;;;;;5133291;27;20478;-78
2022/01/10 02:35:37;;;;;;;9.18;4.72;;;;;;;;;;5132708;27;20406;-78
2022/01/10 02:38:04;;;;;;;8.80;4.80;;;;;;;;;;5133162;27;20030;-78
2022/01/10 02:40:32;;;;;;;8.27;5.30;;;;;;;;;;5132805;27;20395;-78
2022/01/10 02:42:58;;;;;;;7.90;4.68;;;;;;;;;;5132967;27;20011;-78
2022/01/10 02:45:24;;;;;;;6.93;4.55;;;;;;;;;;5132607;27;20035;-78
2022/01/10 02:47:50;;;;;;;7.88;5.03;;;;;;;;;;5133000;27;20023;-77
2022/01/10 02:50:18;;;;;;;8.43;5.20;;;;;;;;;;5133047;27;20030;-78
2022/01/10 02:52:44;;;;;;;6.00;4.20;;;;;;;;;;5133182;27;20470;-78
2022/01/10 02:55:11;;;;;;;8.55;4.75;;;;;;;;;;5132778;27;20483;-78
2022/01/10 02:57:37;;;;;;;6.97;4.63;;;;;;;;;;5132653;27;20084;-77
2022/01/10 03:00:06;;;;;;;7.82;4.15;;;;;;;;;;5132469;27;20030;-77
2022/01/10 03:02:34;;;;;;;8.02;4.28;;;;;;;;;;5132534;27;20493;-78
2022/01/10 03:05:00;;;;;;;6.50;4.35;;;;;;;;;;5114222;27;20026;-78
2022/01/10 03:07:27;;;;;;;8.95;4.53;;;;;;;;;;5132416;27;20098;-78
2022/01/10 03:09:53;;;;;;;7.82;4.05;;;;;;;;;;5132657;27;20476;-78
2022/01/10 03:12:20;;;;;;;6.07;3.92;;;;;;;;;;5132347;27;20023;-78
2022/01/10 03:14:46;;;;;;;8.07;4.72;;;;;;;;;;5132727;27;20031;-78
2022/01/10 03:17:12;;;;;;;7.63;4.57;;;;;;;;;;5114376;27;20023;-78
2022/01/10 03:19:39;;;;;;;6.13;3.78;;;;;;;;;;5132270;27;20486;-78
2022/01/10 03:22:05;;;;;;;7.93;4.85;;;;;;;;;;5132481;27;20023;-77
2022/01/10 03:24:31;;;;;;;7.53;4.20;;;;;;;;;;5132137;27;20022;-77
2022/01/10 03:26:57;;;;;;;6.70;4.43;;;;;;;;;;5132169;27;20023;-77
2022/01/10 03:29:23;;;;;;;6.55;4.28;;;;;;;;;;5132108;27;20022;-77
2022/01/10 03:31:50;;;;;;;5.82;4.10;;;;;;;;;;5132221;27;20106;-77
2022/01/10 03:34:16;;;;;;;7.30;4.00;;;;;;;;;;5114115;28;20031;-77
2022/01/10 03:36:43;;;;;;;7.22;4.80;;;;;;;;;;5132334;27;20023;-77
2022/01/10 03:39:10;;;;;;;6.90;4.45;;;;;;;;;;5132237;28;20428;-77
2022/01/10 03:41:36;;;;;;;6.30;4.40;;;;;;;;;;5113516;28;20031;-77
2022/01/10 03:44:02;;;;;;;5.50;3.95;;;;;;;;;;5132005;28;20035;-77
2022/01/10 03:46:29;;;;;;;6.28;4.18;;;;;;;;;;5131873;28;20012;-77
2022/01/10 03:48:55;;;;;;;6.22;4.00;;;;;;;;;;5132161;28;20090;-77
2022/01/10 03:51:21;;;;;;;5.75;4.00;;;;;;;;;;5131892;28;20102;-77
2022/01/10 03:53:47;;;;;;;6.85;4.45;;;;;;;;;;5132140;28;20499;-77
2022/01/10 03:56:13;;;;;;;6.75;4.45;;;;;;;;;;5132350;28;20038;-78
2022/01/10 03:58:39;;;;;;;5.70;3.80;;;;;;;;;;5131840;28;20023;-78
2022/01/10 04:01:08;;;;;;;6.03;3.70;;;;;;;;;;5131991;28;20383;-77
2022/01/10 04:03:34;;;;;;;5.45;3.78;;;;;;;;;;5131744;28;20382;-77
2022/01/10 04:06:00;;;;;;;6.22;4.15;;;;;;;;;;5132006;28;20019;-77
2022/01/10 04:08:26;;;;;;;8.02;4.32;;;;;;;;;;5113285;28;20027;-77
2022/01/10 04:10:52;;;;;;;5.20;3.22;;;;;;;;;;5132007;28;20042;-78
2022/01/10 04:13:19;;;;;;;5.82;3.65;;;;;;;;;;5131782;28;20023;-77
2022/01/10 04:15:45;;;;;;;6.15;3.70;;;;;;;;;;5132076;28;20039;-75
2022/01/10 04:18:10;;;;;;;5.38;3.60;;;;;;;;;;5131880;28;20026;-75
2022/01/10 04:20:37;;;;;;;7.15;4.28;;;;;;;;;;5131550;28;20080;-75
2022/01/10 04:23:03;;;;;;;6.35;3.55;;;;;;;;;;5131881;28;20024;-75
2022/01/10 04:25:29;;;;;;;7.93;4.43;;;;;;;;;;5131598;28;20032;-75
2022/01/10 04:27:55;;;;;;;6.13;3.70;;;;;;;;;;5113336;28;20439;-75
2022/01/10 04:30:21;;;;;;;7.28;4.18;;;;;;;;;;5131498;28;20072;-75
2022/01/10 04:32:47;;;;;;;6.10;3.92;;;;;;;;;;5131665;28;20107;-76
2022/01/10 04:35:13;;;;;;;6.72;3.67;;;;;;;;;;5113767;28;20035;-78
2022/01/10 04:37:39;;;;;;;4.35;3.13;;;;;;;;;;5132509;27;20019;-76
2022/01/10 04:40:06;;;;;;;6.57;3.97;;;;;;;;;;5135490;27;20026;-76
2022/01/10 04:42:32;;;;;;;5.53;3.50;;;;;;;;;;5135243;27;20099;-76
2022/01/10 04:44:58;;;;;;;6.38;3.92;;;;;;;;;;5134938;27;20059;-76
2022/01/10 04:47:24;;;;;;;6.18;3.72;;;;;;;;;;5135155;27;20023;-76
2022/01/10 04:52:25;;;;;;;6.77;3.87;;;;;;;;;;5135041;27;20027;-78
2022/01/10 04:54:51;;;;;;;6.03;3.35;;;;;;;;;;5135144;27;20280;-78
2022/01/10 04:57:17;;;;;;;7.80;3.95;;;;;;;;;;5117211;27;20033;-78
2022/01/10 04:59:43;;;;;;;5.47;3.53;;;;;;;;;;5116998;27;20421;-76
2022/01/10 05:02:10;;;;;;;6.10;3.38;;;;;;;;;;5116630;27;20077;-78
2022/01/10 05:04:36;;;;;;;6.85;3.60;;;;;;;;;;5116329;27;20031;-78
2022/01/10 05:07:02;;;;;;;4.72;3.15;;;;;;;;;;5135035;27;20426;-78
2022/01/10 05:09:28;;;;;;;5.45;3.83;;;;;;;;;;5134614;27;20110;-78
2022/01/10 05:11:55;;;;;;;5.30;3.55;;;;;;;;;;5134858;27;20047;-76
2022/01/10 05:14:21;;;;;;;5.63;3.28;;;;;;;;;;5134493;27;20023;-75
2022/01/10 05:16:47;;;;;;;6.68;3.55;;;;;;;;;;5116903;27;20511;-77
2022/01/10 05:19:13;;;;;;;6.38;3.63;;;;;;;;;;5116575;27;20023;-78
2022/01/10 05:21:39;;;;;;;6.10;3.45;;;;;;;;;;5134417;27;20031;-76
2022/01/10 05:24:06;;;;;;;7.05;4.25;;;;;;;;;;5134528;27;20059;-78
2022/01/10 05:26:32;;;;;;;6.00;3.55;;;;;;;;;;5134183;27;20026;-77
2022/01/10 05:28:59;;;;;;;5.35;3.42;;;;;;;;;;5134586;27;20029;-76
2022/01/10 05:31:25;;;;;;;5.53;3.35;;;;;;;;;;5134316;27;20023;-77
2022/01/10 05:33:51;;;;;;;5.93;3.55;;;;;;;;;;5116020;27;20031;-77
2022/01/10 05:36:17;;;;;;;6.90;4.03;;;;;;;;;;5134063;27;20076;-78
2022/01/10 05:38:44;;;;;;;4.63;2.80;;;;;;;;;;5134750;27;20019;-77
2022/01/10 05:41:10;;;;;;;5.07;3.13;;;;;;;;;;5134281;27;20024;-77
2022/01/10 05:43:36;;;;;;;6.18;3.72;;;;;;;;;;5133877;27;20027;-76
2022/01/10 05:46:06;;;;;;;5.38;3.42;;;;;;;;;;5134273;27;20080;-77
2022/01/10 05:48:39;;;;;;;4.93;3.05;;;;;;;;;;5133152;27;20428;-77
2022/01/10 05:51:05;;;;;;;5.75;3.80;;;;;;;;;;5133838;27;20522;-77
2022/01/10 05:53:31;;;;;;;5.18;3.22;;;;;;;;;;5115036;27;20066;-77
2022/01/10 05:55:57;;;;;;;3.47;2.75;;;;;;;;;;5134044;27;20070;-77
2022/01/10 05:58:23;;;;;;;5.15;3.38;;;;;;;;;;5133694;27;20058;-78
2022/01/10 06:00:49;;;;;;;6.13;3.65;;;;;;;;;;5133893;27;20019;-78
2022/01/10 06:03:16;;;;;;;4.20;2.72;;;;;;;;;;5134436;27;20023;-78
2022/01/10 06:05:42;;;;;;;3.80;2.70;;;;;;;;;;5133643;27;20030;-77
2022/01/10 06:08:08;;;;;;;5.15;3.17;;;;;;;;;;5133794;27;20038;-77
2022/01/10 06:10:35;;;;;;;4.60;2.90;;;;;;;;;;5114976;27;20037;-77
2022/01/10 06:13:01;;;;;;;4.50;2.97;;;;;;;;;;5133662;27;20034;-77
2022/01/10 06:15:27;;;;;;;4.18;2.83;;;;;;;;;;5133268;27;20108;-77
2022/01/10 06:17:53;;;;;;;3.97;2.90;;;;;;;;;;5133642;27;20030;-77
2022/01/10 06:20:19;;;;;;;4.53;2.95;;;;;;;;;;5133273;27;20023;-77
2022/01/10 06:22:45;;;;;;;4.38;2.88;;;;;;;;;;5133631;27;20019;-78
2022/01/10 06:25:13;;;;;;;3.80;2.65;;;;;;;;;;5133600;27;20038;-78
2022/01/10 06:27:40;;;;;;;4.32;3.10;;;;;;;;;;5114496;27;20059;-77
2022/01/10 06:30:06;;;;;;;4.15;2.88;;;;;;;;;;5133255;27;20054;-77
2022/01/10 06:32:32;;;;;;;3.90;2.72;;;;;;;;;;5132995;27;20027;-76
2022/01/10 06:34:58;;;;;;;4.90;3.00;;;;;;;;;;5132983;27;20039;-77
2022/01/10 06:37:25;;;;;;;4.07;2.33;;;;;;;;;;5132649;27;20107;-77
2022/01/10 06:39:51;;;;;;;4.07;2.55;;;;;;;;;;5133061;27;20030;-77
2022/01/10 06:42:17;;;;;;;3.65;2.65;;;;;;;;;;5132797;27;20473;-77
2022/01/10 06:44:43;;;;;;;3.67;2.85;;;;;;;;;;5133119;27;20100;-77
2022/01/10 06:47:09;;;;;;;5.15;2.95;;;;;;;;;;5114604;27;20128;-77
2022/01/10 06:49:35;;;;;;;4.45;2.40;;;;;;;;;;5132519;27;20178;-77
2022/01/10 06:52:02;;;;;;;4.20;2.45;;;;;;;;;;5132792;27;20031;-77
2022/01/10 06:54:28;;;;;;;4.10;2.80;;;;;;;;;;5132485;27;20459;-77
2022/01/10 06:56:58;;;;;;;3.42;2.38;;;;;;;;;;5132762;27;20114;-77
2022/01/10 06:59:24;;;;;;;3.03;2.28;;;;;;;;;;5132566;27;20020;-77
2022/01/10 07:01:50;;;;;;;3.53;2.63;;;;;;;;;;5132556;27;20102;-77
2022/01/10 07:04:16;;;;;;;2.90;2.13;;;;;;;;;;5132888;27;20438;-77
2022/01/10 07:06:42;;;;;;;3.10;2.05;;;;;;;;;;5132592;27;20029;-78
2022/01/10 07:09:08;;;;;;;3.15;2.10;;;;;;;;;;5132523;27;20437;-78
2022/01/10 07:11:34;;;;;;;2.72;2.15;;;;;;;;;;5113744;27;20123;-77
2022/01/10 07:14:00;;;;;;;4.15;2.20;;;;;;;;;;5132411;27;20471;-78
2022/01/10 07:16:26;;;;;;;3.38;2.20;;;;;;;;;;5113703;27;20031;-77
2022/01/10 07:18:52;;;;;;;2.90;2.15;;;;;;;;;;5131988;27;20045;-77
2022/01/10 07:21:18;;;;;;;3.35;2.50;;;;;;;;;;5131986;27;20072;-78
2022/01/10 07:23:44;;;;;;;3.47;2.33;;;;;;;;;;5132591;27;20379;-77
2022/01/10 07:26:10;;;;;;;2.83;2.15;;;;;;;;;;5132262;27;20498;-77
2022/01/10 07:28:36;;;;;;;2.72;2.03;;;;;;;;;;5131748;27;20031;-77
2022/01/10 07:31:02;;;;;;;4.00;1.98;;;;;;;;;;5113820;27;20030;-78
2022/01/10 07:33:28;;;;;;;2.65;2.10;;;;;;;;;;5131799;27;20049;-78
2022/01/10 07:35:55;;;;;;;2.63;1.98;;;;;;;;;;5132096;27;20035;-77
2022/01/10 07:38:21;;;;;;;2.33;1.95;;;;;;;;;;5132063;27;20016;-79
2022/01/10 07:40:47;;;;;;;3.22;2.13;;;;;;;;;;5132296;28;20023;-78
2022/01/10 07:43:13;;;;;;;5.95;1.90;;;;;;;;;;5132263;28;20045;-78
2022/01/10 07:45:39;;;;;;;3.22;2.38;;;;;;;;;;5131904;28;20042;-81
2022/01/10 07:48:05;;;;;;;2.72;2.10;;;;;;;;;;5131921;28;20027;-82
2022/01/10 07:50:31;;;;;;;2.63;1.88;;;;;;;;;;5132972;28;20019;-80
2022/01/10 07:52:57;;;;;;;3.33;2.33;;;;;;;;;;5132068;28;20454;-79
2022/01/10 07:55:23;;;;;;;2.67;1.60;;;;;;;;;;5131688;28;20114;-80
2022/01/10 07:57:49;;;;;;;3.90;1.63;;;;;;;;;;5132039;28;20051;-79
2022/01/10 08:00:15;;;;;;;2.58;1.67;;;;;;;;;;5131732;28;20023;-80
2022/01/10 08:02:41;;;;;;;2.40;1.50;;;;;;;;;;5131613;28;20114;-77
2022/01/10 08:05:08;;;;;;;2.63;1.55;;;;;;;;;;5131853;28;20474;-78
2022/01/10 08:07:34;;;;;;;2.10;1.55;;;;;;;;;;5131805;28;20104;-80
2022/01/10 08:10:00;;;;;;;4.00;1.60;;;;;;;;;;5131960;28;20141;-78
2022/01/10 08:12:26;;;;;;;2.72;1.42;;;;;;;;;;5113769;27;20060;-77
2022/01/10 08:14:52;;;;;;;3.17;1.50;;;;;;;;;;5112850;28;20032;-82
2022/01/10 08:17:18;;;;;;;3.33;1.45;;;;;;;;;;5114976;28;20562;-80
2022/01/10 08:19:44;;;;;;;2.45;1.40;;;;;;;;;;5115702;28;20081;-80
2022/01/10 08:22:11;;;;;;;2.40;1.73;;;;;;;;;;5115468;28;20107;-78
2022/01/10 08:24:37;;;;;;;2.42;1.67;;;;;;;;;;5114981;28;20434;-77
2022/01/10 08:27:03;;;;;;;2.95;1.48;;;;;;;;;;5115189;28;20106;-79
2022/01/10 08:29:29;;;;;;;2.22;1.48;;;;;;;;;;5114735;28;20031;-78
2022/01/10 08:31:55;;;;;;;2.97;1.75;;;;;;;;;;5114976;28;20069;-77
2022/01/10 08:34:24;;;;;;;2.63;1.42;;;;;;;;;;5114815;28;20024;-79
2022/01/10 08:36:50;;;;;;;3.47;1.67;;;;;;;;;;5114879;28;20038;-78
2022/01/10 08:39:18;;;;;;;2.70;1.35;;;;;;;;;;5115314;28;20028;-77
2022/01/10 08:41:44;;;;;;;5.20;1.50;;;;;;;;;;5115117;28;20106;-77
2022/01/10 08:44:10;;;;;;;1.92;1.30;;;;;;;;;;5114721;28;20082;-79
2022/01/10 08:46:36;;;;;;;2.90;1.40;;;;;;;;;;5114537;28;20024;-77
2022/01/10 08:49:03;;;;;;;2.50;1.40;;;;;;;;;;5114744;28;20032;-77
2022/01/10 08:51:30;;;;;;;4.65;1.40;;;;;;;;;;5114513;28;20102;-77
2022/01/10 08:53:56;;;;;;;1.83;1.20;;;;;;;;;;5095872;28;20031;-79
2022/01/10 08:56:22;;;;;;;2.33;1.02;;;;;;;;;;5113808;28;20035;-77
2022/01/10 08:58:48;;;;;;;3.60;1.30;;;;;;;;;;5114658;28;20399;-77
2022/01/10 09:01:14;;;;;;;4.68;1.08;;;;;;;;;;5114796;28;20084;-76
2022/01/10 09:03:40;;;;;;;3.40;1.38;;;;;;;;;;5114285;28;20019;-77
2022/01/10 09:06:06;;;;;;;3.78;1.08;;;;;;;;;;5114341;28;20028;-76
2022/01/10 09:08:34;;;;;;;2.25;1.45;;;;;;;;;;5114034;28;20031;-76
2022/01/10 09:11:01;;;;;;;3.50;1.60;;;;;;;;;;5114286;28;20026;-77
2022/01/10 09:13:27;;;;;;;2.58;1.30;;;;;;;;;;5113971;28;20028;-77
2022/01/10 09:15:53;;;;;;;2.03;1.10;;;;;;;;;;5114133;28;20122;-76
2022/01/10 09:18:19;;;;;;;2.00;1.20;;;;;;;;;;5114142;28;20028;-77
2022/01/10 09:20:45;;;;;;;1.60;1.15;;;;;;;;;;5114457;28;20153;-77
2022/01/10 09:23:12;;;;;;;1.50;1.20;;;;;;;;;;5113861;28;20492;-77
2022/01/10 09:25:38;;;;;;;2.33;1.40;;;;;;;;;;5113767;28;20483;-77
2022/01/10 09:28:05;;;;;;;2.83;1.58;;;;;;;;;;5113870;28;20038;-77
2022/01/10 09:30:31;;;;;;;2.50;1.40;;;;;;;;;;5113591;28;20028;-77
2022/01/10 09:32:57;;;;;;;3.08;1.52;;;;;;;;;;5113861;28;20024;-77
2022/01/10 09:35:23;;;;;;;2.17;1.55;;;;;;;;;;5113582;28;20040;-77
2022/01/10 09:37:50;;;;;;;1.90;1.10;;;;;;;;;;5113919;28;20536;-77
2022/01/10 09:40:18;;;;;;;2.50;1.45;;;;;;;;;;5113987;28;20054;-77
2022/01/10 09:42:45;;;;;;;4.88;1.25;;;;;;;;;;5113955;28;20026;-76
2022/01/10 09:45:11;;;;;;;4.63;1.40;;;;;;;;;;5095109;28;20363;-76
2022/01/10 09:47:37;;;;;;;2.30;1.20;;;;;;;;;;5113378;28;20598;-76
2022/01/10 09:50:06;;;;;;;3.10;1.55;;;;;;;;;;5113403;28;20107;-76
2022/01/10 09:52:32;;;;;;;4.80;1.63;;;;;;;;;;5113240;28;20047;-79
2022/01/10 09:54:58;;;;;;;2.58;1.30;;;;;;;;;;5094888;28;20065;-77
2022/01/10 09:57:24;;;;;;;2.13;1.33;;;;;;;;;;5113133;28;20027;-76
2022/01/10 09:59:50;;;;;;;3.92;1.50;;;;;;;;;;5113388;28;20102;-76
2022/01/10 10:02:17;;;;;;;5.43;1.52;;;;;;;;;;5095343;28;20106;-77
2022/01/10 10:04:43;;;;;;;2.83;1.50;;;;;;;;;;5113585;28;20065;-77
2022/01/10 10:07:09;;;;;;;3.38;1.40;;;;;;;;;;5113168;28;20027;-76
2022/01/10 10:09:36;;;;;;;2.85;1.67;;;;;;;;;;5112891;28;20106;-76
2022/01/10 10:12:03;;;;;;;3.88;1.60;;;;;;;;;;5112928;28;20062;-75
2022/01/10 10:14:29;;;;;;;3.65;1.40;;;;;;;;;;5112846;28;20047;-76
2022/01/10 10:16:56;;;;;;;2.42;1.42;;;;;;;;;;5113036;28;20111;-77
2022/01/10 10:19:29;;;;;;;4.53;1.27;;;;;;;;;;5112720;28;20024;-78
2022/01/10 10:21:56;;;;;;;2.13;1.38;;;;;;;;;;5112434;28;20027;-78
2022/01/10 10:24:23;;;;;;;3.30;1.65;;;;;;;;;;5092793;28;20030;-77
2022/01/10 10:26:49;;;;;;;3.50;1.80;;;;;;;;;;5093250;28;20028;-77
2022/01/10 10:29:17;;;;;;;6.35;1.38;;;;;;;;;;5113191;28;20023;-78
2022/01/10 10:31:50;;;;;;;5.28;1.90;;;;;;;;;;5113158;28;20042;-78
2022/01/10 10:34:19;;;;;;;2.83;1.55;;;;;;;;;;5112878;28;20119;-77
2022/01/10 10:36:45;;;;;;;4.13;1.50;;;;;;;;;;5112006;28;20031;-78
2022/01/10 10:39:11;;;;;;;5.43;1.55;;;;;;;;;;5092947;28;20483;-78
2022/01/10 10:41:39;;;;;;;2.25;1.35;;;;;;;;;;5094344;28;20028;-78
2022/01/10 10:44:05;;;;;;;3.25;1.73;;;;;;;;;;5111868;28;20024;-78
2022/01/10 10:46:31;;;;;;;3.55;1.65;;;;;;;;;;5111722;28;20032;-77
2022/01/10 10:49:03;;;;;;;3.45;1.77;;;;;;;;;;5093054;28;20020;-77
2022/01/10 10:51:31;;;;;;;2.70;1.73;;;;;;;;;;5112130;28;20030;-78
2022/01/10 10:54:01;;;;;;;2.80;1.63;;;;;;;;;;5112069;28;20023;-77
2022/01/10 10:56:31;;;;;;;3.30;1.50;;;;;;;;;;5111921;28;20380;-77
2022/01/10 10:58:57;;;;;;;3.90;1.50;;;;;;;;;;5105867;28;20074;-78
2022/01/10 11:01:23;;;;;;;3.15;1.73;;;;;;;;;;5110248;28;20059;-78
2022/01/10 11:03:50;;;;;;;4.65;1.58;;;;;;;;;;5092241;28;20072;-77
2022/01/10 11:06:16;;;;;;;3.55;1.70;;;;;;;;;;5110404;28;20038;-77
2022/01/10 11:08:44;;;;;;;2.45;1.45;;;;;;;;;;5110410;28;20024;-78
2022/01/10 11:11:14;;;;;;;3.38;1.80;;;;;;;;;;5110379;28;20039;-78
2022/01/10 11:13:40;;;;;;;3.22;1.60;;;;;;;;;;5110075;28;20023;-78
2022/01/10 11:16:06;;;;;;;4.13;1.90;;;;;;;;;;5091814;28;20579;-78
2022/01/10 11:18:33;;;;;;;3.90;1.70;;;;;;;;;;5110220;28;20016;-77
2022/01/10 11:20:59;;;;;;;3.85;1.33;;;;;;;;;;5111311;28;20035;-77
2022/01/10 11:23:26;;;;;;;4.93;1.83;;;;;;;;;;5111653;28;20062;-77
2022/01/10 11:25:52;;;;;;;2.78;1.33;;;;;;;;;;5093378;28;20480;-78
2022/01/10 11:28:23;;;;;;;4.90;1.42;;;;;;;;;;5111136;28;20034;-78
2022/01/10 11:30:53;;;;;;;3.22;1.70;;;;;;;;;;5111821;28;20024;-75
2022/01/10 11:33:22;;;;;;;5.88;2.03;;;;;;;;;;5111056;28;20020;-77
2022/01/10 11:35:53;;;;;;;4.68;1.80;;;;;;;;;;5110937;28;20032;-76
2022/01/10 11:38:21;;;;;;;6.38;2.03;;;;;;;;;;5107912;28;20479;-78
2022/01/10 11:40:49;;;;;;;4.60;2.15;;;;;;;;;;5111658;28;20020;-76
2022/01/10 11:43:34;;;;;;;7.20;2.90;;;;;;;;;;5093840;28;20032;-75
2022/01/10 11:46:12;;;;;;;14.13;2.78;;;;;;;;;;5093416;28;20032;-77
2022/01/10 11:48:43;;;;;;;6.30;2.25;;;;;;;;;;5116010;28;20054;-81
2022/01/10 11:51:14;;;;;;;8.65;3.05;;;;;;;;;;5097452;28;20019;-78
2022/01/10 11:53:42;;;;;;;12.10;5.35;;;;;;;;;;5113944;28;20506;-78
2022/01/10 11:56:19;;;;;;;19.50;5.80;;;;;;;;;;5114591;28;20044;-78
2022/01/10 11:59:04;;;;;;;16.20;7.93;;;;;;;;;;5115695;28;20035;-80
2022/01/10 12:01:38;;;;;;;23.45;11.48;;;;;;;;;;5115059;28;20024;-77
2022/01/10 12:04:04;;;;;;;17.88;9.70;;;;;;;;;;5112100;28;20028;-80
2022/01/10 12:06:30;;;;;;;18.02;9.25;;;;;;;;;;5113685;28;20609;-80
2022/01/10 12:08:57;;;;;;;17.45;9.85;;;;;;;;;;5114167;28;20418;-80
2022/01/10 12:11:24;;;;;;;17.67;8.57;;;;;;;;;;5115099;28;20020;-80
2022/01/10 12:13:55;;;;;;;14.50;8.00;;;;;;;;;;5097244;28;20110;-81
2022/01/10 12:16:21;;;;;;;14.57;6.00;;;;;;;;;;5115181;28;20031;-80
2022/01/10 12:18:48;;;;;;;10.23;4.75;;;;;;;;;;5115322;28;20423;-81
2022/01/10 12:21:14;;;;;;;9.00;4.72;;;;;;;;;;5115429;28;20028;-81
2022/01/10 12:23:41;;;;;;;11.73;5.18;;;;;;;;;;5114781;28;20028;-81
2022/01/10 12:26:07;;;;;;;10.82;5.13;;;;;;;;;;5114094;28;20106;-82
2022/01/10 12:28:33;;;;;;;7.55;4.72;;;;;;;;;;5113324;28;20055;-80
2022/01/10 12:31:02;;;;;;;9.50;4.95;;;;;;;;;;5095205;28;20039;-80
2022/01/10 12:33:32;;;;;;;11.10;4.90;;;;;;;;;;5113171;28;20024;-82
2022/01/10 12:36:02;;;;;;;11.10;4.65;;;;;;;;;;5113167;28;20549;-79
2022/01/10 12:38:28;;;;;;;8.35;4.43;;;;;;;;;;5095272;28;20016;-79
2022/01/10 12:40:53;;;;;;;12.73;5.30;;;;;;;;;;5114172;28;20024;-79
2022/01/10 12:43:20;;;;;;;10.98;4.80;;;;;;;;;;5112759;28;20020;-79
2022/01/10 12:45:46;;;;;;;11.85;4.40;;;;;;;;;;5115143;28;20483;-80
2022/01/10 12:48:13;;;;;;;9.68;4.80;;;;;;;;;;5115027;28;20076;-80
2022/01/10 12:50:40;;;;;;;15.70;4.03;;;;;;;;;;5113053;28;20023;-81
2022/01/10 12:53:06;;;;;;;7.47;3.63;;;;;;;;;;5113801;28;20027;-80
2022/01/10 12:55:33;;;;;;;9.02;3.83;;;;;;;;;;5113223;28;20058;-79
2022/01/10 12:57:59;;;;;;;10.05;4.65;;;;;;;;;;5113440;28;20024;-83
2022/01/10 13:00:25;;;;;;;9.20;3.17;;;;;;;;;;5114402;28;20141;-81
2022/01/10 13:02:51;;;;;;;10.30;3.35;;;;;;;;;;5114477;28;20098;-82
2022/01/10 13:05:18;;;;;;;11.35;3.15;;;;;;;;;;5096857;28;20402;-86
2022/01/10 13:07:45;;;;;;;10.02;2.58;;;;;;;;;;5097361;28;20015;-81
2022/01/10 13:10:20;;;;;;;6.22;2.95;;;;;;;;;;5115094;28;20027;-84
2022/01/10 13:12:50;;;;;;;5.30;2.92;;;;;;;;;;5115456;28;20019;-83
2022/01/10 13:15:17;;;;;;;6.72;2.72;;;;;;;;;;5115113;28;20059;-82
2022/01/10 13:18:03;;;;;;;5.72;2.15;;;;;;;;;;5096898;28;20054;-83
2022/01/10 13:20:34;;;;;;;5.35;2.30;;;;;;;;;;5114155;28;20027;-86
2022/01/10 13:23:04;;;;;;;6.82;2.50;;;;;;;;;;5114677;28;20028;-82
2022/01/10 13:25:31;;;;;;;5.07;2.35;;;;;;;;;;5095950;28;20030;-83
2022/01/10 13:28:03;;;;;;;4.57;2.35;;;;;;;;;;5114441;28;20030;-83
2022/01/10 13:30:29;;;;;;;5.50;1.83;;;;;;;;;;5095894;28;20026;-82
2022/01/10 13:32:59;;;;;;;4.78;2.33;;;;;;;;;;5115020;28;20020;-82
2022/01/10 13:35:26;;;;;;;4.68;2.03;;;;;;;;;;5095646;28;20058;-81
2022/01/10 13:38:07;;;;;;;4.07;1.83;;;;;;;;;;5114445;28;20031;-85
2022/01/10 13:40:41;;;;;;;4.97;1.75;;;;;;;;;;5095705;28;20088;-78
2022/01/10 13:43:09;;;;;;;4.90;1.73;;;;;;;;;;5113876;28;20035;-79
2022/01/10 13:45:51;;;;;;;3.38;1.70;;;;;;;;;;5113422;28;20114;-79
2022/01/10 13:48:20;;;;;;;3.70;1.83;;;;;;;;;;5111536;27;20020;-76
2022/01/10 13:50:57;;;;;;;4.68;2.15;;;;;;;;;;5103404;27;20027;-79
2022/01/10 13:53:29;;;;;;;4.32;1.90;;;;;;;;;;5109362;28;20047;-80
2022/01/10 13:56:09;;;;;;;5.57;2.03;;;;;;;;;;5112131;28;20066;-82
2022/01/10 13:58:37;;;;;;;7.35;2.65;;;;;;;;;;5092724;28;20042;-81
2022/01/10 14:01:04;;;;;;;7.13;1.67;;;;;;;;;;5115657;27;20031;-79
2022/01/10 14:03:32;;;;;;;4.70;1.95;;;;;;;;;;5113006;28;20037;-81
2022/01/10 14:06:05;;;;;;;4.28;1.70;;;;;;;;;;5113070;28;20106;-80
2022/01/10 14:08:31;;;;;;;3.95;1.88;;;;;;;;;;5111630;28;20403;-79
2022/01/10 14:10:57;;;;;;;5.60;1.50;;;;;;;;;;5111999;28;20020;-79
2022/01/10 14:13:23;;;;;;;3.00;1.40;;;;;;;;;;5112971;28;20028;-79
2022/01/10 14:15:48;;;;;;;4.70;1.60;;;;;;;;;;5112016;28;20054;-80
2022/01/10 14:18:14;;;;;;;5.10;1.40;;;;;;;;;;5111608;28;20188;-80
2022/01/10 14:20:40;;;;;;;4.53;1.52;;;;;;;;;;5111106;28;20510;-80
2022/01/10 14:23:06;;;;;;;3.50;1.60;;;;;;;;;;5111230;28;20043;-80
2022/01/10 14:25:32;;;;;;;6.38;1.35;;;;;;;;;;5111164;28;20094;-80
2022/01/10 14:27:58;;;;;;;4.22;1.63;;;;;;;;;;5111266;28;20137;-79
2022/01/10 14:30:24;;;;;;;3.78;1.63;;;;;;;;;;5110982;28;20114;-80
2022/01/10 14:32:52;;;;;;;3.92;1.83;;;;;;;;;;5111095;28;20023;-79
2022/01/10 14:35:18;;;;;;;3.35;1.30;;;;;;;;;;5110703;28;20027;-79
2022/01/10 14:37:44;;;;;;;5.07;1.20;;;;;;;;;;5093252;28;20024;-79
2022/01/10 14:40:10;;;;;;;4.15;1.48;;;;;;;;;;5110940;28;20030;-78
2022/01/10 14:42:39;;;;;;;2.70;1.20;;;;;;;;;;5092639;28;20024;-80
2022/01/10 14:45:06;;;;;;;3.92;1.35;;;;;;;;;;5110983;28;20030;-81
2022/01/10 14:47:32;;;;;;;3.58;1.30;;;;;;;;;;5108556;28;20031;-79